Time;durP1;ratioP1;P1;durP2;ratioP2;P2;SDS_P1;SDS_P2;PMS_P1;PMS_P2;Temp;Humidity;BMP_temperature;BMP_pressure;BME280_temperature;BME280_humidity;BME280_pressure;Samples;Min_cycle;Max_cycle;Signal;HPM_P1;HPM_P2
2021/07/03 00:00:35;;;;;;;29.55;14.90;;;;;;;;;;5073291;28;20488;-48
2021/07/03 00:03:01;;;;;;;8.70;5.78;;;;;;;;;;5071823;28;20058;-48
2021/07/03 00:05:28;;;;;;;28.58;12.85;;;;;;;;;;5073110;28;20464;-48
2021/07/03 00:07:54;;;;;;;22.58;13.05;;;;;;;;;;5073403;28;20411;-49
2021/07/03 00:10:20;;;;;;;56.33;31.02;;;;;;;;;;5073053;28;20025;-48
2021/07/03 00:12:46;;;;;;;12.32;7.88;;;;;;;;;;5073258;28;20104;-48
2021/07/03 00:15:14;;;;;;;13.23;8.32;;;;;;;;;;5071628;28;20048;-46
2021/07/03 00:17:40;;;;;;;5.20;3.45;;;;;;;;;;5073081;28;20048;-48
2021/07/03 00:20:07;;;;;;;5.50;4.15;;;;;;;;;;5072720;28;20111;-47
2021/07/03 00:22:34;;;;;;;10.10;6.45;;;;;;;;;;5073027;28;20032;-46
2021/07/03 00:25:00;;;;;;;22.02;13.27;;;;;;;;;;5071559;28;20027;-47
2021/07/03 00:27:26;;;;;;;21.55;12.00;;;;;;;;;;5071536;28;20082;-47
2021/07/03 00:29:52;;;;;;;24.15;12.90;;;;;;;;;;5072825;28;20025;-48
2021/07/03 00:32:18;;;;;;;17.48;10.77;;;;;;;;;;5072967;28;20027;-47
2021/07/03 00:34:44;;;;;;;7.55;5.78;;;;;;;;;;5072761;28;20106;-47
2021/07/03 00:37:10;;;;;;;5.72;3.63;;;;;;;;;;5071432;28;20021;-47
2021/07/03 00:39:36;;;;;;;48.22;28.00;;;;;;;;;;5072689;28;20103;-48
2021/07/03 00:42:04;;;;;;;27.05;14.13;;;;;;;;;;5072994;28;20013;-47
2021/07/03 00:44:32;;;;;;;34.80;18.35;;;;;;;;;;5073074;28;20025;-47
2021/07/03 00:47:00;;;;;;;13.20;8.02;;;;;;;;;;5072764;28;20386;-47
2021/07/03 00:49:26;;;;;;;8.95;3.63;;;;;;;;;;5073266;28;20360;-46
2021/07/03 00:51:52;;;;;;;8.23;2.95;;;;;;;;;;5073342;28;20107;-47
2021/07/03 00:54:21;;;;;;;22.60;15.15;;;;;;;;;;5076078;28;20149;-47
2021/07/03 00:56:48;;;;;;;32.03;17.80;;;;;;;;;;5076219;28;20016;-47
2021/07/03 00:59:14;;;;;;;42.75;23.13;;;;;;;;;;5076357;28;20083;-47
2021/07/03 01:01:41;;;;;;;33.70;18.48;;;;;;;;;;5076230;28;20104;-47
2021/07/03 01:04:07;;;;;;;12.20;6.82;;;;;;;;;;5076221;28;20028;-47
2021/07/03 01:06:33;;;;;;;11.63;6.85;;;;;;;;;;5075979;28;20036;-47
2021/07/03 01:08:59;;;;;;;47.80;26.08;;;;;;;;;;5075904;28;20028;-47
2021/07/03 01:11:26;;;;;;;94.97;50.67;;;;;;;;;;5075820;28;20020;-46
2021/07/03 01:13:52;;;;;;;23.45;13.32;;;;;;;;;;5075781;28;20056;-48
2021/07/03 01:16:18;;;;;;;10.73;6.05;;;;;;;;;;5075919;28;20020;-47
2021/07/03 01:18:45;;;;;;;10.20;5.30;;;;;;;;;;5075815;28;20031;-48
2021/07/03 01:21:11;;;;;;;6.70;3.25;;;;;;;;;;5075832;28;20381;-48
2021/07/03 01:23:37;;;;;;;6.53;2.85;;;;;;;;;;5075532;28;20027;-45
2021/07/03 01:26:03;;;;;;;9.15;5.40;;;;;;;;;;5075906;28;20029;-47
2021/07/03 01:28:29;;;;;;;40.65;23.95;;;;;;;;;;5075660;28;20416;-47
2021/07/03 01:30:56;;;;;;;46.05;26.23;;;;;;;;;;5075635;28;20031;-47
2021/07/03 01:33:22;;;;;;;27.30;16.98;;;;;;;;;;5075585;28;20116;-48
2021/07/03 01:35:48;;;;;;;41.47;24.42;;;;;;;;;;5075373;28;20426;-47
2021/07/03 01:38:18;;;;;;;71.30;38.33;;;;;;;;;;5075460;28;20021;-47
2021/07/03 01:40:45;;;;;;;31.38;17.20;;;;;;;;;;5075598;28;20104;-48
2021/07/03 01:43:11;;;;;;;26.75;15.85;;;;;;;;;;5075284;28;20063;-46
2021/07/03 01:45:37;;;;;;;10.68;6.55;;;;;;;;;;5075548;28;20052;-47
2021/07/03 01:48:03;;;;;;;8.95;5.00;;;;;;;;;;5075232;28;20028;-47
2021/07/03 01:50:29;;;;;;;3.92;2.58;;;;;;;;;;5075186;28;20036;-47
2021/07/03 01:52:55;;;;;;;11.60;3.30;;;;;;;;;;5075132;28;20151;-48
2021/07/03 01:55:22;;;;;;;7.78;2.80;;;;;;;;;;5075522;28;20025;-47
2021/07/03 01:57:48;;;;;;;3.80;2.75;;;;;;;;;;5074070;28;20369;-48
2021/07/03 02:00:14;;;;;;;3.00;2.10;;;;;;;;;;5073742;28;20034;-48
2021/07/03 02:02:40;;;;;;;2.63;2.10;;;;;;;;;;5075256;28;20482;-47
2021/07/03 02:05:06;;;;;;;3.97;2.25;;;;;;;;;;5074427;28;20020;-47
2021/07/03 02:07:32;;;;;;;3.47;2.53;;;;;;;;;;5075314;28;20055;-45
2021/07/03 02:10:00;;;;;;;4.20;2.50;;;;;;;;;;5074729;28;20024;-47
2021/07/03 02:12:26;;;;;;;5.25;2.50;;;;;;;;;;5074942;28;20020;-46
2021/07/03 02:14:52;;;;;;;2.90;2.35;;;;;;;;;;5074592;28;20136;-48
2021/07/03 02:17:18;;;;;;;6.75;2.78;;;;;;;;;;5075036;28;20025;-47
2021/07/03 02:19:44;;;;;;;22.58;14.32;;;;;;;;;;5074748;28;20028;-46
2021/07/03 02:22:10;;;;;;;15.63;9.57;;;;;;;;;;5075093;28;20092;-47
2021/07/03 02:24:37;;;;;;;18.48;10.45;;;;;;;;;;5074790;28;20020;-47
2021/07/03 02:27:03;;;;;;;10.80;6.72;;;;;;;;;;5074629;28;20051;-48
2021/07/03 02:29:29;;;;;;;6.38;4.20;;;;;;;;;;5074528;28;20078;-47
2021/07/03 02:31:55;;;;;;;6.95;3.05;;;;;;;;;;5074543;28;20388;-46
2021/07/03 02:34:21;;;;;;;4.65;3.20;;;;;;;;;;5074457;28;20032;-47
2021/07/03 02:36:48;;;;;;;2.63;2.30;;;;;;;;;;5074403;28;20032;-47
2021/07/03 02:39:14;;;;;;;2.97;2.10;;;;;;;;;;5074355;28;20107;-47
2021/07/03 02:41:40;;;;;;;2.72;2.30;;;;;;;;;;5074728;28;20028;-47
2021/07/03 02:44:06;;;;;;;2.72;1.90;;;;;;;;;;5074219;28;20036;-46
2021/07/03 02:46:32;;;;;;;3.50;2.20;;;;;;;;;;5074227;28;20451;-47
2021/07/03 02:48:58;;;;;;;3.58;1.80;;;;;;;;;;5074397;28;20037;-47
2021/07/03 02:51:26;;;;;;;3.15;2.20;;;;;;;;;;5073968;28;20028;-46
2021/07/03 02:53:52;;;;;;;12.63;6.47;;;;;;;;;;5073945;28;20035;-47
2021/07/03 02:56:18;;;;;;;22.70;12.73;;;;;;;;;;5074104;28;20369;-46
2021/07/03 02:58:45;;;;;;;15.48;8.73;;;;;;;;;;5074016;28;20027;-47
2021/07/03 03:01:11;;;;;;;15.35;8.68;;;;;;;;;;5073846;28;20020;-47
2021/07/03 03:03:37;;;;;;;10.40;5.32;;;;;;;;;;5073779;28;20103;-47
2021/07/03 03:06:03;;;;;;;8.02;5.60;;;;;;;;;;5073999;28;20472;-47
2021/07/03 03:08:29;;;;;;;13.25;7.85;;;;;;;;;;5073953;28;20055;-48
2021/07/03 03:10:55;;;;;;;17.15;10.32;;;;;;;;;;5073820;28;20020;-47
2021/07/03 03:13:21;;;;;;;14.75;7.35;;;;;;;;;;5073736;28;20464;-46
2021/07/03 03:15:48;;;;;;;6.78;4.78;;;;;;;;;;5073476;28;20063;-42
2021/07/03 03:18:14;;;;;;;8.75;4.88;;;;;;;;;;5072317;28;20392;-43
2021/07/03 03:20:40;;;;;;;4.90;2.90;;;;;;;;;;5073967;28;20055;-42
2021/07/03 03:23:06;;;;;;;4.75;3.20;;;;;;;;;;5073856;28;20028;-44
2021/07/03 03:25:32;;;;;;;5.45;3.03;;;;;;;;;;5073429;28;20025;-42
2021/07/03 03:27:58;;;;;;;3.53;2.58;;;;;;;;;;5073448;28;20464;-42
2021/07/03 03:30:24;;;;;;;3.33;2.35;;;;;;;;;;5073569;28;20107;-46
2021/07/03 03:32:50;;;;;;;4.07;2.10;;;;;;;;;;5073598;28;20025;-44
2021/07/03 03:35:16;;;;;;;2.38;2.17;;;;;;;;;;5073711;28;20040;-45
2021/07/03 03:37:43;;;;;;;2.33;2.08;;;;;;;;;;5073408;28;20029;-44
2021/07/03 03:40:09;;;;;;;2.55;1.92;;;;;;;;;;5073312;28;20017;-46
2021/07/03 03:42:35;;;;;;;2.10;1.90;;;;;;;;;;5071960;28;20068;-42
2021/07/03 03:45:01;;;;;;;2.58;1.88;;;;;;;;;;5073435;28;20082;-47
2021/07/03 03:47:27;;;;;;;2.97;2.25;;;;;;;;;;5073287;28;20024;-43
2021/07/03 03:49:53;;;;;;;3.05;2.15;;;;;;;;;;5073374;28;20025;-45
2021/07/03 03:52:19;;;;;;;4.22;2.20;;;;;;;;;;5073257;28;20024;-45
2021/07/03 03:54:45;;;;;;;4.28;2.20;;;;;;;;;;5073143;28;20075;-46
2021/07/03 03:57:21;;;;;;;4.00;1.98;;;;;;;;;;5073143;28;20020;-45
2021/07/03 03:59:48;;;;;;;2.67;1.90;;;;;;;;;;5073209;28;20112;-45
2021/07/03 04:02:14;;;;;;;4.90;2.03;;;;;;;;;;5073280;28;20021;-48
2021/07/03 04:04:41;;;;;;;3.28;1.92;;;;;;;;;;5073248;28;20108;-46
2021/07/03 04:07:07;;;;;;;2.33;2.10;;;;;;;;;;5073139;28;20077;-47
2021/07/03 04:09:33;;;;;;;3.22;1.75;;;;;;;;;;5072929;28;20032;-47
2021/07/03 04:11:59;;;;;;;5.03;2.40;;;;;;;;;;5073297;28;20499;-47
2021/07/03 04:14:25;;;;;;;2.67;2.10;;;;;;;;;;5071922;28;20076;-48
2021/07/03 04:16:51;;;;;;;6.45;2.28;;;;;;;;;;5073069;28;20025;-48
2021/07/03 04:19:17;;;;;;;3.83;2.47;;;;;;;;;;5073101;28;20032;-47
2021/07/03 04:21:43;;;;;;;5.13;2.30;;;;;;;;;;5072981;28;20100;-47
2021/07/03 04:24:10;;;;;;;2.85;2.10;;;;;;;;;;5073038;28;20385;-47
2021/07/03 04:26:36;;;;;;;2.03;1.83;;;;;;;;;;5073052;28;20074;-47
2021/07/03 04:29:02;;;;;;;3.92;2.70;;;;;;;;;;5076949;28;20059;-47
2021/07/03 04:31:28;;;;;;;9.55;6.53;;;;;;;;;;5076673;28;20081;-48
2021/07/03 04:33:54;;;;;;;2.65;2.17;;;;;;;;;;5076733;28;20078;-47
2021/07/03 04:36:20;;;;;;;2.75;1.98;;;;;;;;;;5076712;28;20035;-46
2021/07/03 04:38:46;;;;;;;2.85;2.30;;;;;;;;;;5075399;28;20304;-47
2021/07/03 04:41:12;;;;;;;2.20;1.95;;;;;;;;;;5076448;28;20571;-48
2021/07/03 04:43:38;;;;;;;4.32;1.83;;;;;;;;;;5076682;28;20047;-47
2021/07/03 04:46:05;;;;;;;3.40;2.00;;;;;;;;;;5076596;28;20025;-47
2021/07/03 04:48:31;;;;;;;3.00;2.17;;;;;;;;;;5076657;28;20096;-47
2021/07/03 04:50:57;;;;;;;2.78;2.38;;;;;;;;;;5076306;28;20029;-47
2021/07/03 04:53:23;;;;;;;5.53;2.20;;;;;;;;;;5076625;28;20484;-47
2021/07/03 04:55:49;;;;;;;7.13;2.38;;;;;;;;;;5076126;28;20055;-46
2021/07/03 04:58:15;;;;;;;2.75;1.92;;;;;;;;;;5076156;28;20016;-45
2021/07/03 05:00:42;;;;;;;2.28;2.08;;;;;;;;;;5076275;28;20380;-46
2021/07/03 05:03:08;;;;;;;3.70;2.30;;;;;;;;;;5076060;28;20032;-47
2021/07/03 05:05:34;;;;;;;2.80;2.30;;;;;;;;;;5076551;28;20475;-48
2021/07/03 05:08:00;;;;;;;2.05;1.73;;;;;;;;;;5075949;28;20024;-48
2021/07/03 05:10:26;;;;;;;2.55;1.85;;;;;;;;;;5076161;28;20020;-48
2021/07/03 05:12:53;;;;;;;2.65;1.65;;;;;;;;;;5075849;28;20124;-47
2021/07/03 05:15:19;;;;;;;2.10;1.80;;;;;;;;;;5075749;28;20055;-46
2021/07/03 05:17:45;;;;;;;4.70;2.28;;;;;;;;;;5075897;28;20096;-47
2021/07/03 05:20:12;;;;;;;3.65;2.30;;;;;;;;;;5074589;28;20029;-47
2021/07/03 05:22:38;;;;;;;3.65;2.03;;;;;;;;;;5075679;28;20430;-47
2021/07/03 05:25:04;;;;;;;4.03;1.95;;;;;;;;;;5076073;28;20024;-45
2021/07/03 05:27:30;;;;;;;3.15;1.60;;;;;;;;;;5076154;28;20020;-48
2021/07/03 05:29:56;;;;;;;4.35;2.50;;;;;;;;;;5075638;28;20106;-48
2021/07/03 05:32:22;;;;;;;2.70;1.95;;;;;;;;;;5075787;28;20024;-43
2021/07/03 05:34:48;;;;;;;2.00;1.80;;;;;;;;;;5075603;28;20041;-44
2021/07/03 05:37:15;;;;;;;4.47;1.75;;;;;;;;;;5075552;28;20024;-43
2021/07/03 05:39:41;;;;;;;2.78;2.05;;;;;;;;;;5074282;28;20032;-46
2021/07/03 05:42:07;;;;;;;2.67;1.95;;;;;;;;;;5075377;28;20020;-43
2021/07/03 05:44:33;;;;;;;3.08;1.85;;;;;;;;;;5075881;28;20028;-43
2021/07/03 05:47:00;;;;;;;3.05;2.05;;;;;;;;;;5075545;28;20130;-43
2021/07/03 05:49:26;;;;;;;3.30;2.25;;;;;;;;;;5075356;28;20031;-46
2021/07/03 05:51:52;;;;;;;3.35;2.42;;;;;;;;;;5075242;28;20027;-43
2021/07/03 05:54:18;;;;;;;3.22;2.15;;;;;;;;;;5075116;28;20033;-46
2021/07/03 05:56:44;;;;;;;3.67;1.77;;;;;;;;;;5075201;28;20024;-44
2021/07/03 05:59:11;;;;;;;1.95;1.63;;;;;;;;;;5075299;28;20093;-45
2021/07/03 06:01:37;;;;;;;7.07;1.80;;;;;;;;;;5075025;28;20031;-47
2021/07/03 06:04:03;;;;;;;24.15;16.48;;;;;;;;;;5074935;28;20112;-48
2021/07/03 06:06:29;;;;;;;52.25;32.15;;;;;;;;;;5074794;28;20468;-45
2021/07/03 06:08:55;;;;;;;17.45;11.38;;;;;;;;;;5075069;28;20020;-48
2021/07/03 06:11:21;;;;;;;18.80;11.98;;;;;;;;;;5073515;28;20462;-45
2021/07/03 06:13:47;;;;;;;5.40;3.58;;;;;;;;;;5074594;28;20594;-48
2021/07/03 06:16:14;;;;;;;3.63;3.00;;;;;;;;;;5074729;28;20035;-48
2021/07/03 06:18:40;;;;;;;3.85;2.90;;;;;;;;;;5074853;28;20035;-49
2021/07/03 06:21:06;;;;;;;6.32;3.88;;;;;;;;;;5074680;28;20027;-49
2021/07/03 06:23:32;;;;;;;5.35;3.28;;;;;;;;;;5074558;28;20045;-48
2021/07/03 06:26:03;;;;;;;4.10;2.72;;;;;;;;;;5074606;28;20024;-49
2021/07/03 06:28:31;;;;;;;;;;;;;;;;;;5074847;28;20538;-45
2021/07/03 06:30:57;;;;;;;5.25;2.63;;;;;;;;;;5074520;28;19909;-46
2021/07/03 06:33:23;;;;;;;3.03;2.45;;;;;;;;;;5074553;28;20036;-48
2021/07/03 06:35:50;;;;;;;2.30;2.10;;;;;;;;;;5074271;28;20028;-47
2021/07/03 06:38:17;;;;;;;2.65;1.80;;;;;;;;;;5074345;28;20082;-47
2021/07/03 06:40:43;;;;;;;2.40;1.75;;;;;;;;;;5074266;28;20031;-46
2021/07/03 06:43:09;;;;;;;2.55;2.13;;;;;;;;;;5074040;28;20021;-45
2021/07/03 06:45:35;;;;;;;3.75;2.20;;;;;;;;;;5074430;28;20059;-47
2021/07/03 06:48:01;;;;;;;2.33;2.13;;;;;;;;;;5073014;28;20044;-45
2021/07/03 06:50:27;;;;;;;5.35;2.85;;;;;;;;;;5073829;28;20541;-48
2021/07/03 06:52:53;;;;;;;20.80;14.10;;;;;;;;;;5074030;28;20032;-47
2021/07/03 06:55:19;;;;;;;33.95;20.05;;;;;;;;;;5074047;28;20071;-47
2021/07/03 06:57:45;;;;;;;37.78;24.00;;;;;;;;;;5074022;28;20089;-42
2021/07/03 07:00:12;;;;;;;71.63;43.10;;;;;;;;;;5074016;28;20029;-43
2021/07/03 07:02:38;;;;;;;14.05;8.90;;;;;;;;;;5073913;28;20472;-44
2021/07/03 07:05:06;;;;;;;67.53;47.13;;;;;;;;;;5067341;28;20485;-43
2021/07/03 07:07:32;;;;;;;32.03;19.05;;;;;;;;;;5053510;28;20029;-44
2021/07/03 07:09:58;;;;;;;18.33;11.82;;;;;;;;;;5053225;28;20056;-43
2021/07/03 07:12:25;;;;;;;28.85;20.23;;;;;;;;;;5050433;28;20021;-43
2021/07/03 07:14:51;;;;;;;6.53;4.60;;;;;;;;;;5053083;28;20118;-46
2021/07/03 07:17:17;;;;;;;5.82;4.80;;;;;;;;;;5053350;28;20400;-45
2021/07/03 07:19:43;;;;;;;25.02;13.18;;;;;;;;;;5053071;28;20021;-45
2021/07/03 07:22:09;;;;;;;4.35;3.10;;;;;;;;;;5053072;28;20423;-47
2021/07/03 07:24:35;;;;;;;4.55;3.22;;;;;;;;;;5053483;28;20017;-45
2021/07/03 07:27:01;;;;;;;3.92;3.10;;;;;;;;;;5052977;28;20022;-46
2021/07/03 07:29:27;;;;;;;5.78;4.10;;;;;;;;;;5053161;28;20025;-43
2021/07/03 07:31:54;;;;;;;4.93;3.00;;;;;;;;;;5052988;28;20021;-46
2021/07/03 07:34:20;;;;;;;52.63;35.38;;;;;;;;;;5052557;28;20491;-44
2021/07/03 07:36:46;;;;;;;16.33;9.15;;;;;;;;;;5052785;28;20380;-44
2021/07/03 07:39:12;;;;;;;45.90;28.40;;;;;;;;;;5053290;28;20373;-44
2021/07/03 07:41:38;;;;;;;29.15;20.23;;;;;;;;;;5052854;28;20017;-45
2021/07/03 07:44:04;;;;;;;22.02;14.25;;;;;;;;;;5052797;28;20036;-44
2021/07/03 07:46:30;;;;;;;36.05;21.73;;;;;;;;;;5052608;28;20053;-44
2021/07/03 07:48:57;;;;;;;11.55;8.02;;;;;;;;;;5052743;28;20256;-47
2021/07/03 07:51:24;;;;;;;12.20;8.07;;;;;;;;;;5052628;28;20016;-44
2021/07/03 07:53:50;;;;;;;17.08;10.40;;;;;;;;;;5052492;28;20072;-47
2021/07/03 07:56:18;;;;;;;30.70;16.48;;;;;;;;;;5053035;28;20440;-46
2021/07/03 07:58:44;;;;;;;20.27;11.40;;;;;;;;;;5052636;28;20035;-46
2021/07/03 08:01:13;;;;;;;70.70;39.47;;;;;;;;;;5052383;28;20033;-44
2021/07/03 08:03:39;;;;;;;26.67;15.15;;;;;;;;;;5056332;28;20036;-44
2021/07/03 08:06:05;;;;;;;10.82;7.97;;;;;;;;;;5057179;28;20428;-46
2021/07/03 08:08:31;;;;;;;7.20;5.50;;;;;;;;;;5057496;28;20104;-43
2021/07/03 08:10:57;;;;;;;16.40;8.85;;;;;;;;;;5055778;28;20044;-48
2021/07/03 08:13:24;;;;;;;25.88;16.23;;;;;;;;;;5056986;28;20025;-45
2021/07/03 08:15:50;;;;;;;13.02;8.23;;;;;;;;;;5056812;28;20129;-46
2021/07/03 08:18:16;;;;;;;7.30;4.70;;;;;;;;;;5056903;28;20074;-46
2021/07/03 08:20:42;;;;;;;4.22;2.80;;;;;;;;;;5055596;28;20489;-46
2021/07/03 08:23:09;;;;;;;99.00;61.60;;;;;;;;;;5056746;28;20017;-44
2021/07/03 08:25:35;;;;;;;13.15;8.43;;;;;;;;;;5056774;28;20021;-47
2021/07/03 08:28:01;;;;;;;10.25;6.30;;;;;;;;;;5056321;28;20025;-46
2021/07/03 08:30:28;;;;;;;10.73;7.88;;;;;;;;;;5056402;28;20417;-44
2021/07/03 08:32:55;;;;;;;10.98;5.70;;;;;;;;;;5056774;28;20029;-45
2021/07/03 08:35:21;;;;;;;8.90;5.63;;;;;;;;;;5056755;28;20033;-48
2021/07/03 08:37:47;;;;;;;8.18;5.35;;;;;;;;;;5056507;28;20025;-46
2021/07/03 08:40:17;;;;;;;30.55;19.30;;;;;;;;;;5056568;28;20032;-46
2021/07/03 08:42:43;;;;;;;18.20;6.47;;;;;;;;;;5056323;28;20017;-42
2021/07/03 08:45:10;;;;;;;49.08;16.33;;;;;;;;;;5056439;28;20051;-44
2021/07/03 08:47:46;;;;;;;23.75;9.73;;;;;;;;;;5056585;28;20021;-46
2021/07/03 08:50:13;;;;;;;31.25;10.57;;;;;;;;;;5056340;28;20083;-47
2021/07/03 08:52:39;;;;;;;12.73;5.63;;;;;;;;;;5056719;28;20067;-47
2021/07/03 08:55:15;;;;;;;8.80;3.40;;;;;;;;;;5056216;28;20039;-47
2021/07/03 08:57:42;;;;;;;5.75;2.97;;;;;;;;;;5056220;28;20044;-46
2021/07/03 09:00:11;;;;;;;12.65;5.88;;;;;;;;;;5056148;28;20021;-46
2021/07/03 09:02:44;;;;;;;7.97;3.70;;;;;;;;;;5056213;28;20217;-46
2021/07/03 09:05:21;;;;;;;3.00;2.55;;;;;;;;;;5053734;28;20032;-41
2021/07/03 09:07:47;;;;;;;4.43;2.72;;;;;;;;;;5028892;28;20087;-42
2021/07/03 09:10:13;;;;;;;3.47;2.63;;;;;;;;;;5028441;28;20025;-42
2021/07/03 09:12:39;;;;;;;5.97;3.50;;;;;;;;;;5027983;28;20032;-42
2021/07/03 09:15:10;;;;;;;4.55;2.17;;;;;;;;;;5027880;28;20496;-42
2021/07/03 09:17:49;;;;;;;4.57;3.35;;;;;;;;;;5028410;28;20024;-44
2021/07/03 09:20:26;;;;;;;5.18;2.67;;;;;;;;;;5028406;28;20021;-42
2021/07/03 09:22:58;;;;;;;2.50;2.30;;;;;;;;;;5027901;28;20036;-43
2021/07/03 09:25:24;;;;;;;5.50;2.10;;;;;;;;;;5028181;28;20511;-44
2021/07/03 09:27:50;;;;;;;3.78;2.17;;;;;;;;;;5022261;28;20041;-46
2021/07/03 09:30:19;;;;;;;4.25;2.30;;;;;;;;;;5027974;28;20021;-45
2021/07/03 09:32:52;;;;;;;3.97;2.55;;;;;;;;;;5028346;28;20067;-44
2021/07/03 09:35:19;;;;;;;4.70;3.15;;;;;;;;;;5027945;28;20450;-43
2021/07/03 09:37:45;;;;;;;3.88;2.60;;;;;;;;;;5027798;28;20096;-44
2021/07/03 09:40:11;;;;;;;4.05;3.30;;;;;;;;;;5027523;28;20029;-43
2021/07/03 09:42:40;;;;;;;5.50;4.15;;;;;;;;;;5027518;28;20028;-43
2021/07/03 09:45:07;;;;;;;5.13;3.33;;;;;;;;;;5027791;28;20524;-44
2021/07/03 09:47:33;;;;;;;4.05;2.28;;;;;;;;;;5028041;28;20021;-43
2021/07/03 09:50:02;;;;;;;3.03;1.60;;;;;;;;;;5027783;28;20017;-43
2021/07/03 09:52:29;;;;;;;2.42;2.20;;;;;;;;;;5027187;28;20035;-44
2021/07/03 09:54:55;;;;;;;5.90;3.28;;;;;;;;;;5027329;28;20488;-44
2021/07/03 09:57:23;;;;;;;4.65;3.67;;;;;;;;;;5027586;28;20039;-43
2021/07/03 09:59:49;;;;;;;4.03;3.35;;;;;;;;;;5027495;28;20059;-46
2021/07/03 10:02:16;;;;;;;3.55;2.00;;;;;;;;;;5027579;28;20071;-44
2021/07/03 10:04:42;;;;;;;3.83;1.95;;;;;;;;;;5027423;28;20904;-43
2021/07/03 10:07:17;;;;;;;3.40;2.00;;;;;;;;;;5027594;28;20056;-44
2021/07/03 10:09:43;;;;;;;2.90;2.38;;;;;;;;;;5027630;28;20588;-45
2021/07/03 10:12:11;;;;;;;3.05;2.22;;;;;;;;;;5027318;28;20433;-43
2021/07/03 10:14:42;;;;;;;9.55;3.15;;;;;;;;;;5026995;28;20540;-43
2021/07/03 10:17:08;;;;;;;3.78;1.80;;;;;;;;;;5027273;28;20025;-43
2021/07/03 10:19:38;;;;;;;2.38;1.80;;;;;;;;;;5027279;28;20071;-44
2021/07/03 10:22:11;;;;;;;3.93;1.70;;;;;;;;;;5026697;28;20397;-45
2021/07/03 10:24:42;;;;;;;2.42;2.20;;;;;;;;;;5026209;28;20029;-42
2021/07/03 10:27:37;;;;;;;9.55;2.45;;;;;;;;;;5027252;28;20406;-43
2021/07/03 10:30:05;;;;;;;2.35;2.08;;;;;;;;;;5003570;28;20055;-42
2021/07/03 10:32:32;;;;;;;10.63;6.25;;;;;;;;;;5003818;28;20398;-43
2021/07/03 10:35:10;;;;;;;8.02;3.92;;;;;;;;;;5004030;28;20045;-42
2021/07/03 10:37:37;;;;;;;31.20;18.52;;;;;;;;;;5002669;28;20081;-43
2021/07/03 10:40:14;;;;;;;14.48;8.07;;;;;;;;;;4989469;28;20041;-42
2021/07/03 10:42:40;;;;;;;11.95;7.57;;;;;;;;;;5004068;28;20030;-43
2021/07/03 10:45:23;;;;;;;33.20;18.63;;;;;;;;;;5004310;28;20856;-42
2021/07/03 10:47:52;;;;;;;9.70;4.30;;;;;;;;;;5004755;28;20924;-42
2021/07/03 10:50:18;;;;;;;5.70;3.55;;;;;;;;;;5004030;28;20029;-44
2021/07/03 10:52:44;;;;;;;10.00;4.80;;;;;;;;;;5003853;28;20473;-44
2021/07/03 10:55:11;;;;;;;7.07;5.05;;;;;;;;;;5003690;28;20030;-45
2021/07/03 10:57:46;;;;;;;6.93;2.88;;;;;;;;;;5004205;28;20026;-42
2021/07/03 11:00:13;;;;;;;23.25;12.40;;;;;;;;;;5003816;28;20044;-42
2021/07/03 11:02:40;;;;;;;17.92;12.20;;;;;;;;;;5003754;28;20574;-42
2021/07/03 11:05:11;;;;;;;11.23;6.45;;;;;;;;;;5003814;28;21517;-42
2021/07/03 11:07:37;;;;;;;9.70;5.93;;;;;;;;;;5024743;28;20500;-42
2021/07/03 11:10:09;;;;;;;13.52;9.10;;;;;;;;;;5027261;28;20463;-42
2021/07/03 11:12:55;;;;;;;8.70;5.10;;;;;;;;;;5026088;28;20021;-44
2021/07/03 11:15:29;;;;;;;2.75;2.50;;;;;;;;;;5026027;28;20239;-41
2021/07/03 11:17:56;;;;;;;6.32;4.72;;;;;;;;;;5026308;28;20394;-43
2021/07/03 11:20:25;;;;;;;4.38;3.28;;;;;;;;;;5025780;28;20141;-41
2021/07/03 11:22:51;;;;;;;5.40;2.15;;;;;;;;;;5026509;28;20709;-42
2021/07/03 11:25:28;;;;;;;6.97;4.55;;;;;;;;;;5026359;28;20027;-42
2021/07/03 11:27:54;;;;;;;16.30;9.10;;;;;;;;;;5026261;28;20471;-41
2021/07/03 11:30:21;;;;;;;7.65;3.50;;;;;;;;;;5026593;28;20123;-42
2021/07/03 11:32:55;;;;;;;7.97;5.45;;;;;;;;;;5025981;28;20029;-40
2021/07/03 11:35:22;;;;;;;6.22;4.93;;;;;;;;;;5025754;28;20045;-42
2021/07/03 11:37:48;;;;;;;20.75;11.90;;;;;;;;;;5024539;28;20231;-41
2021/07/03 11:40:20;;;;;;;8.40;5.22;;;;;;;;;;5026180;28;20029;-41
2021/07/03 11:42:48;;;;;;;5.80;4.53;;;;;;;;;;5019741;28;20087;-43
2021/07/03 11:45:16;;;;;;;9.43;7.05;;;;;;;;;;5025867;28;20086;-44
2021/07/03 11:47:44;;;;;;;66.40;48.15;;;;;;;;;;5025459;28;20028;-44
2021/07/03 11:50:22;;;;;;;16.77;10.65;;;;;;;;;;5025819;28;20132;-41
2021/07/03 11:52:48;;;;;;;8.65;6.80;;;;;;;;;;5026000;28;20025;-40
2021/07/03 11:55:16;;;;;;;13.27;9.80;;;;;;;;;;5026048;28;20096;-41
2021/07/03 11:57:43;;;;;;;10.38;7.40;;;;;;;;;;5025648;28;20342;-42
2021/07/03 12:00:20;;;;;;;12.15;9.23;;;;;;;;;;5025685;28;20029;-43
2021/07/03 12:02:47;;;;;;;12.50;9.43;;;;;;;;;;5025225;28;20040;-43
2021/07/03 12:05:13;;;;;;;12.10;8.25;;;;;;;;;;5024983;28;20845;-42
2021/07/03 12:07:40;;;;;;;28.17;20.05;;;;;;;;;;5025328;28;20136;-41
2021/07/03 12:10:07;;;;;;;9.10;6.82;;;;;;;;;;5025072;28;20035;-42
2021/07/03 12:12:33;;;;;;;7.97;5.32;;;;;;;;;;5025988;28;20112;-44
2021/07/03 12:15:01;;;;;;;18.02;6.72;;;;;;;;;;5025448;28;20064;-43
2021/07/03 12:17:27;;;;;;;7.85;5.35;;;;;;;;;;5025856;28;20013;-43
2021/07/03 12:20:06;;;;;;;21.52;14.70;;;;;;;;;;5025505;28;20104;-43
2021/07/03 12:22:32;;;;;;;36.97;26.10;;;;;;;;;;5025370;28;20022;-47
2021/07/03 12:24:58;;;;;;;74.97;48.85;;;;;;;;;;5025770;28;21636;-43
2021/07/03 12:27:25;;;;;;;43.83;29.75;;;;;;;;;;5025624;28;20025;-43
2021/07/03 12:29:51;;;;;;;13.20;9.35;;;;;;;;;;5025453;28;20040;-43
2021/07/03 12:32:17;;;;;;;13.73;10.40;;;;;;;;;;5025497;28;21232;-44
2021/07/03 12:34:43;;;;;;;61.78;39.00;;;;;;;;;;5025489;28;20521;-42
2021/07/03 12:37:12;;;;;;;44.70;28.15;;;;;;;;;;5024707;28;20079;-47
2021/07/03 12:39:39;;;;;;;27.25;17.73;;;;;;;;;;5025156;28;20041;-44
2021/07/03 12:42:07;;;;;;;18.05;11.07;;;;;;;;;;5024361;28;20132;-42
2021/07/03 12:44:33;;;;;;;12.45;5.03;;;;;;;;;;5025218;28;20591;-43
2021/07/03 12:46:59;;;;;;;7.00;3.70;;;;;;;;;;5024498;28;20028;-44
2021/07/03 12:49:36;;;;;;;15.30;10.10;;;;;;;;;;5027132;28;20323;-43
2021/07/03 12:52:03;;;;;;;24.60;18.58;;;;;;;;;;5028790;28;21027;-41
2021/07/03 12:54:29;;;;;;;5.18;3.60;;;;;;;;;;5028736;28;20044;-44
2021/07/03 12:56:56;;;;;;;5.22;3.58;;;;;;;;;;5028293;28;20109;-44
2021/07/03 12:59:33;;;;;;;26.52;16.10;;;;;;;;;;5028550;28;20346;-42
2021/07/03 13:02:03;;;;;;;7.50;6.00;;;;;;;;;;5028884;28;20025;-41
2021/07/03 13:04:29;;;;;;;14.13;9.23;;;;;;;;;;5042132;28;20041;-42
2021/07/03 13:06:55;;;;;;;14.15;10.07;;;;;;;;;;5028940;28;20036;-42
2021/07/03 13:09:21;;;;;;;81.13;49.17;;;;;;;;;;5028544;28;20155;-43
2021/07/03 13:11:47;;;;;;;23.55;12.52;;;;;;;;;;5029020;28;20864;-42
2021/07/03 13:14:13;;;;;;;10.80;7.70;;;;;;;;;;5027541;28;20064;-42
2021/07/03 13:16:39;;;;;;;6.57;5.82;;;;;;;;;;5028619;28;20445;-42
2021/07/03 13:19:05;;;;;;;12.15;7.28;;;;;;;;;;5028206;28;20047;-42
2021/07/03 13:21:32;;;;;;;11.00;4.72;;;;;;;;;;5028301;28;20029;-41
2021/07/03 13:23:58;;;;;;;7.38;4.68;;;;;;;;;;5028309;28;20044;-43
2021/07/03 13:26:24;;;;;;;9.00;6.43;;;;;;;;;;5028154;28;20030;-42
2021/07/03 13:28:50;;;;;;;5.43;3.35;;;;;;;;;;5028644;28;20040;-43
2021/07/03 13:31:16;;;;;;;23.23;13.95;;;;;;;;;;5028148;28;20033;-42
2021/07/03 13:33:42;;;;;;;43.63;30.40;;;;;;;;;;5028355;28;20055;-42
2021/07/03 13:36:08;;;;;;;16.73;12.90;;;;;;;;;;5028196;28;20037;-42
2021/07/03 13:38:37;;;;;;;10.80;6.40;;;;;;;;;;5028309;28;20028;-43
2021/07/03 13:41:04;;;;;;;5.10;3.55;;;;;;;;;;5028361;28;20025;-43
2021/07/03 13:43:30;;;;;;;20.40;14.85;;;;;;;;;;5040292;28;20044;-42
2021/07/03 13:45:56;;;;;;;9.65;6.97;;;;;;;;;;5028633;28;20431;-43
2021/07/03 13:48:23;;;;;;;34.85;25.55;;;;;;;;;;5028199;28;20032;-41
2021/07/03 13:50:49;;;;;;;10.13;5.78;;;;;;;;;;5028202;28;20166;-42
2021/07/03 13:53:16;;;;;;;13.48;9.20;;;;;;;;;;5027264;28;20021;-42
2021/07/03 13:55:42;;;;;;;11.30;6.85;;;;;;;;;;5026756;28;20033;-43
2021/07/03 13:58:08;;;;;;;8.70;6.22;;;;;;;;;;5026925;28;20025;-42
2021/07/03 14:00:34;;;;;;;5.80;3.85;;;;;;;;;;5027494;28;20087;-44
2021/07/03 14:03:00;;;;;;;7.00;3.55;;;;;;;;;;5026897;28;20048;-42
2021/07/03 14:05:26;;;;;;;16.75;11.93;;;;;;;;;;5027240;28;20024;-42
2021/07/03 14:07:52;;;;;;;10.48;4.75;;;;;;;;;;5027322;28;20032;-42
2021/07/03 14:10:19;;;;;;;8.27;4.55;;;;;;;;;;5026479;28;20647;-43
2021/07/03 14:12:45;;;;;;;6.30;4.57;;;;;;;;;;5027600;28;20029;-42
2021/07/03 14:15:11;;;;;;;7.80;4.82;;;;;;;;;;5026557;28;20060;-41
2021/07/03 14:17:37;;;;;;;17.17;12.25;;;;;;;;;;5027338;28;20082;-42
2021/07/03 14:20:05;;;;;;;25.77;13.57;;;;;;;;;;5028036;28;20021;-43
2021/07/03 14:22:31;;;;;;;3.67;2.97;;;;;;;;;;5027543;28;20211;-42
2021/07/03 14:24:58;;;;;;;3.20;2.47;;;;;;;;;;5027074;28;20142;-43
2021/07/03 14:27:25;;;;;;;4.38;2.97;;;;;;;;;;5027512;28;20155;-42
2021/07/03 14:29:51;;;;;;;9.75;7.35;;;;;;;;;;5027264;28;20032;-42
2021/07/03 14:32:17;;;;;;;10.88;6.88;;;;;;;;;;5026855;28;20025;-44
2021/07/03 14:34:44;;;;;;;7.10;4.30;;;;;;;;;;5028499;28;20058;-43